sensor_id;sensor_type;location;lat;lon;timestamp;temperature;humidity
3752;DHT22;50827;47.014;7.652;2022-11-15T00:00:51;8.20;99.90
3752;DHT22;50827;47.014;7.652;2022-11-15T00:03:21;8.20;99.90
3752;DHT22;50827;47.014;7.652;2022-11-15T00:05:48;8.10;99.90
3752;DHT22;50827;47.014;7.652;2022-11-15T00:08:15;8.20;99.90
3752;DHT22;50827;47.014;7.652;2022-11-15T00:10:42;8.20;99.90
3752;DHT22;50827;47.014;7.652;2022-11-15T00:13:11;8.20;99.90
3752;DHT22;50827;47.014;7.652;2022-11-15T00:15:39;8.20;99.90
3752;DHT22;50827;47.014;7.652;2022-11-15T00:18:11;8.20;99.90
3752;DHT22;50827;47.014;7.652;2022-11-15T00:20:38;8.10;99.90
3752;DHT22;50827;47.014;7.652;2022-11-15T00:23:05;8.10;99.90
3752;DHT22;50827;47.014;7.652;2022-11-15T00:25:32;8.00;99.90
3752;DHT22;50827;47.014;7.652;2022-11-15T00:28:00;8.10;99.90
3752;DHT22;50827;47.014;7.652;2022-11-15T00:30:27;8.10;99.90
3752;DHT22;50827;47.014;7.652;2022-11-15T00:32:54;8.10;99.90
3752;DHT22;50827;47.014;7.652;2022-11-15T00:35:21;8.20;99.90
3752;DHT22;50827;47.014;7.652;2022-11-15T00:37:48;8.10;99.90
3752;DHT22;50827;47.014;7.652;2022-11-15T00:40:15;8.10;99.90
3752;DHT22;50827;47.014;7.652;2022-11-15T00:42:41;8.20;99.90
3752;DHT22;50827;47.014;7.652;2022-11-15T00:45:09;8.20;99.90
3752;DHT22;50827;47.014;7.652;2022-11-15T00:47:36;8.20;99.90
3752;DHT22;50827;47.014;7.652;2022-11-15T00:50:03;8.20;99.90
3752;DHT22;50827;47.014;7.652;2022-11-15T00:52:30;8.20;99.90
3752;DHT22;50827;47.014;7.652;2022-11-15T00:54:56;8.20;99.90
3752;DHT22;50827;47.014;7.652;2022-11-15T00:57:23;8.20;99.90
3752;DHT22;50827;47.014;7.652;2022-11-15T00:59:49;8.20;99.90
3752;DHT22;50827;47.014;7.652;2022-11-15T01:02:16;8.20;99.90
3752;DHT22;50827;47.014;7.652;2022-11-15T01:04:43;8.20;99.90
3752;DHT22;50827;47.014;7.652;2022-11-15T01:07:09;8.20;99.90
3752;DHT22;50827;47.014;7.652;2022-11-15T01:09:36;8.20;99.90
3752;DHT22;50827;47.014;7.652;2022-11-15T01:12:03;8.20;99.90
3752;DHT22;50827;47.014;7.652;2022-11-15T01:14:30;8.20;99.90
3752;DHT22;50827;47.014;7.652;2022-11-15T01:16:56;8.20;99.90
3752;DHT22;50827;47.014;7.652;2022-11-15T01:19:23;8.30;99.90
3752;DHT22;50827;47.014;7.652;2022-11-15T01:21:50;8.40;99.90
3752;DHT22;50827;47.014;7.652;2022-11-15T01:24:16;8.40;99.90
3752;DHT22;50827;47.014;7.652;2022-11-15T01:26:43;8.40;99.90
3752;DHT22;50827;47.014;7.652;2022-11-15T01:29:10;8.40;99.90
3752;DHT22;50827;47.014;7.652;2022-11-15T01:31:36;8.50;99.90
3752;DHT22;50827;47.014;7.652;2022-11-15T01:34:03;8.40;99.90
3752;DHT22;50827;47.014;7.652;2022-11-15T01:36:30;8.40;99.90
3752;DHT22;50827;47.014;7.652;2022-11-15T01:38:57;8.50;99.90
3752;DHT22;50827;47.014;7.652;2022-11-15T01:41:31;8.40;99.90
3752;DHT22;50827;47.014;7.652;2022-11-15T01:47:02;8.40;99.90
3752;DHT22;50827;47.014;7.652;2022-11-15T01:49:32;8.40;99.90
3752;DHT22;50827;47.014;7.652;2022-11-15T01:52:01;8.40;99.90
3752;DHT22;50827;47.014;7.652;2022-11-15T01:54:28;8.40;99.90
3752;DHT22;50827;47.014;7.652;2022-11-15T01:57:04;8.40;99.90
3752;DHT22;50827;47.014;7.652;2022-11-15T01:59:33;8.30;99.90
3752;DHT22;50827;47.014;7.652;2022-11-15T02:02:00;8.20;99.90
3752;DHT22;50827;47.014;7.652;2022-11-15T02:04:32;8.30;99.90
3752;DHT22;50827;47.014;7.652;2022-11-15T02:07:02;8.30;99.90
3752;DHT22;50827;47.014;7.652;2022-11-15T02:09:30;8.30;99.90
3752;DHT22;50827;47.014;7.652;2022-11-15T02:11:57;8.30;99.90
3752;DHT22;50827;47.014;7.652;2022-11-15T02:14:27;8.30;99.90
3752;DHT22;50827;47.014;7.652;2022-11-15T02:16:59;8.40;99.90
3752;DHT22;50827;47.014;7.652;2022-11-15T02:25:41;8.30;99.90
3752;DHT22;50827;47.014;7.652;2022-11-15T02:28:38;8.30;99.90
3752;DHT22;50827;47.014;7.652;2022-11-15T02:31:17;8.30;99.90
3752;DHT22;50827;47.014;7.652;2022-11-15T02:36:54;8.40;99.90
3752;DHT22;50827;47.014;7.652;2022-11-15T02:39:30;8.30;99.90
3752;DHT22;50827;47.014;7.652;2022-11-15T02:42:09;8.30;99.90
3752;DHT22;50827;47.014;7.652;2022-11-15T02:44:58;8.40;99.90
3752;DHT22;50827;47.014;7.652;2022-11-15T02:47:32;8.40;99.90
3752;DHT22;50827;47.014;7.652;2022-11-15T02:50:09;8.40;99.90
3752;DHT22;50827;47.014;7.652;2022-11-15T02:52:36;8.40;99.90
3752;DHT22;50827;47.014;7.652;2022-11-15T02:55:03;8.40;99.90
3752;DHT22;50827;47.014;7.652;2022-11-15T03:00:09;8.30;99.90
3752;DHT22;50827;47.014;7.652;2022-11-15T03:02:50;8.40;99.90
3752;DHT22;50827;47.014;7.652;2022-11-15T03:05:22;8.40;99.90
3752;DHT22;50827;47.014;7.652;2022-11-15T03:08:01;8.40;99.90
3752;DHT22;50827;47.014;7.652;2022-11-15T03:13:36;8.40;99.90
3752;DHT22;50827;47.014;7.652;2022-11-15T03:16:26;8.40;99.90
3752;DHT22;50827;47.014;7.652;2022-11-15T03:18:59;8.40;99.90
3752;DHT22;50827;47.014;7.652;2022-11-15T03:21:29;8.30;99.90
3752;DHT22;50827;47.014;7.652;2022-11-15T03:23:58;8.30;99.90
3752;DHT22;50827;47.014;7.652;2022-11-15T03:26:28;8.30;99.90
3752;DHT22;50827;47.014;7.652;2022-11-15T03:29:13;8.30;99.90
3752;DHT22;50827;47.014;7.652;2022-11-15T03:31:45;8.20;99.90
3752;DHT22;50827;47.014;7.652;2022-11-15T03:36:49;8.20;99.90
3752;DHT22;50827;47.014;7.652;2022-11-15T03:39:17;8.20;99.90
3752;DHT22;50827;47.014;7.652;2022-11-15T03:42:12;8.20;99.90
3752;DHT22;50827;47.014;7.652;2022-11-15T03:47:25;8.30;99.90
3752;DHT22;50827;47.014;7.652;2022-11-15T03:49:59;8.30;99.90
3752;DHT22;50827;47.014;7.652;2022-11-15T03:52:32;8.20;99.90
3752;DHT22;50827;47.014;7.652;2022-11-15T03:55:01;8.20;99.90
3752;DHT22;50827;47.014;7.652;2022-11-15T03:57:29;8.20;99.90
3752;DHT22;50827;47.014;7.652;2022-11-15T03:59:55;8.20;99.90
3752;DHT22;50827;47.014;7.652;2022-11-15T04:02:22;8.20;99.90
3752;DHT22;50827;47.014;7.652;2022-11-15T04:04:48;8.20;99.90
3752;DHT22;50827;47.014;7.652;2022-11-15T04:07:15;8.20;99.90
3752;DHT22;50827;47.014;7.652;2022-11-15T04:09:42;8.30;99.90
3752;DHT22;50827;47.014;7.652;2022-11-15T04:12:31;8.30;99.90
3752;DHT22;50827;47.014;7.652;2022-11-15T04:17:42;8.40;99.90
3752;DHT22;50827;47.014;7.652;2022-11-15T04:23:15;8.50;99.90
3752;DHT22;50827;47.014;7.652;2022-11-15T04:26:16;8.50;99.90
3752;DHT22;50827;47.014;7.652;2022-11-15T04:28:44;8.50;99.90
3752;DHT22;50827;47.014;7.652;2022-11-15T04:31:29;8.50;99.90
3752;DHT22;50827;47.014;7.652;2022-11-15T04:33:56;8.40;99.90
3752;DHT22;50827;47.014;7.652;2022-11-15T04:36:23;8.40;99.90
3752;DHT22;50827;47.014;7.652;2022-11-15T04:39:09;8.40;99.90
3752;DHT22;50827;47.014;7.652;2022-11-15T04:41:35;8.40;99.90
3752;DHT22;50827;47.014;7.652;2022-11-15T04:44:02;8.40;99.90
3752;DHT22;50827;47.014;7.652;2022-11-15T04:46:29;8.50;99.90
3752;DHT22;50827;47.014;7.652;2022-11-15T04:48:55;8.40;99.90
3752;DHT22;50827;47.014;7.652;2022-11-15T04:51:25;8.40;99.90
3752;DHT22;50827;47.014;7.652;2022-11-15T04:53:51;8.40;99.90
3752;DHT22;50827;47.014;7.652;2022-11-15T04:56:18;8.40;99.90
3752;DHT22;50827;47.014;7.652;2022-11-15T04:58:45;8.50;99.90
3752;DHT22;50827;47.014;7.652;2022-11-15T05:01:14;8.50;99.90
3752;DHT22;50827;47.014;7.652;2022-11-15T05:03:42;8.50;99.90
3752;DHT22;50827;47.014;7.652;2022-11-15T05:06:27;8.50;99.90
3752;DHT22;50827;47.014;7.652;2022-11-15T05:08:55;8.50;99.90
3752;DHT22;50827;47.014;7.652;2022-11-15T05:11:22;8.60;99.90
3752;DHT22;50827;47.014;7.652;2022-11-15T05:13:48;8.60;99.90
3752;DHT22;50827;47.014;7.652;2022-11-15T05:16:15;8.50;99.90
3752;DHT22;50827;47.014;7.652;2022-11-15T05:18:42;8.50;99.90
3752;DHT22;50827;47.014;7.652;2022-11-15T05:21:12;8.50;99.90
3752;DHT22;50827;47.014;7.652;2022-11-15T05:23:39;8.50;99.90
3752;DHT22;50827;47.014;7.652;2022-11-15T05:26:06;8.50;99.90
3752;DHT22;50827;47.014;7.652;2022-11-15T05:28:35;8.50;99.90
3752;DHT22;50827;47.014;7.652;2022-11-15T05:31:10;8.50;99.90
3752;DHT22;50827;47.014;7.652;2022-11-15T05:33:40;8.50;99.90
3752;DHT22;50827;47.014;7.652;2022-11-15T05:36:27;8.50;99.90
3752;DHT22;50827;47.014;7.652;2022-11-15T05:38:55;8.50;99.90
3752;DHT22;50827;47.014;7.652;2022-11-15T05:41:29;8.50;99.90
3752;DHT22;50827;47.014;7.652;2022-11-15T05:43:56;8.50;99.90
3752;DHT22;50827;47.014;7.652;2022-11-15T05:46:23;8.50;99.90
3752;DHT22;50827;47.014;7.652;2022-11-15T05:48:51;8.50;99.90
3752;DHT22;50827;47.014;7.652;2022-11-15T05:51:19;8.50;99.90
3752;DHT22;50827;47.014;7.652;2022-11-15T05:53:48;8.50;99.90
3752;DHT22;50827;47.014;7.652;2022-11-15T05:56:15;8.60;99.90
3752;DHT22;50827;47.014;7.652;2022-11-15T05:58:42;8.60;99.90
3752;DHT22;50827;47.014;7.652;2022-11-15T06:01:09;8.60;99.90
3752;DHT22;50827;47.014;7.652;2022-11-15T06:03:36;8.60;99.90
3752;DHT22;50827;47.014;7.652;2022-11-15T06:06:03;8.60;99.90
3752;DHT22;50827;47.014;7.652;2022-11-15T06:08:29;8.60;99.90
3752;DHT22;50827;47.014;7.652;2022-11-15T06:10:56;8.60;99.90
3752;DHT22;50827;47.014;7.652;2022-11-15T06:13:23;8.60;99.90
3752;DHT22;50827;47.014;7.652;2022-11-15T06:15:49;8.50;99.90
3752;DHT22;50827;47.014;7.652;2022-11-15T06:18:16;8.60;99.90
3752;DHT22;50827;47.014;7.652;2022-11-15T06:20:42;8.60;99.90
3752;DHT22;50827;47.014;7.652;2022-11-15T06:23:09;8.60;99.90
3752;DHT22;50827;47.014;7.652;2022-11-15T06:25:36;8.60;99.90
3752;DHT22;50827;47.014;7.652;2022-11-15T06:28:03;8.70;99.90
3752;DHT22;50827;47.014;7.652;2022-11-15T06:30:29;8.60;99.90
3752;DHT22;50827;47.014;7.652;2022-11-15T06:33:00;8.70;99.90
3752;DHT22;50827;47.014;7.652;2022-11-15T06:35:28;8.70;99.90
3752;DHT22;50827;47.014;7.652;2022-11-15T06:37:56;8.70;99.90
3752;DHT22;50827;47.014;7.652;2022-11-15T06:40:22;8.70;99.90
3752;DHT22;50827;47.014;7.652;2022-11-15T06:42:49;8.70;99.90
3752;DHT22;50827;47.014;7.652;2022-11-15T06:45:16;8.70;99.90
3752;DHT22;50827;47.014;7.652;2022-11-15T06:47:46;8.80;99.90
3752;DHT22;50827;47.014;7.652;2022-11-15T06:50:13;8.80;99.90
3752;DHT22;50827;47.014;7.652;2022-11-15T06:52:40;8.80;99.90
3752;DHT22;50827;47.014;7.652;2022-11-15T06:55:07;8.80;99.90
3752;DHT22;50827;47.014;7.652;2022-11-15T06:57:34;8.80;99.90
3752;DHT22;50827;47.014;7.652;2022-11-15T07:00:04;8.70;99.90
3752;DHT22;50827;47.014;7.652;2022-11-15T07:02:31;8.70;99.90
3752;DHT22;50827;47.014;7.652;2022-11-15T07:04:58;8.70;99.90
3752;DHT22;50827;47.014;7.652;2022-11-15T07:07:24;8.60;99.90
3752;DHT22;50827;47.014;7.652;2022-11-15T07:09:51;8.60;99.90
3752;DHT22;50827;47.014;7.652;2022-11-15T07:12:18;8.60;99.90
3752;DHT22;50827;47.014;7.652;2022-11-15T07:14:44;8.60;99.90
3752;DHT22;50827;47.014;7.652;2022-11-15T07:17:11;8.60;99.90
3752;DHT22;50827;47.014;7.652;2022-11-15T07:19:38;8.60;99.90
3752;DHT22;50827;47.014;7.652;2022-11-15T07:22:04;8.60;99.90
3752;DHT22;50827;47.014;7.652;2022-11-15T07:24:31;8.60;99.90
3752;DHT22;50827;47.014;7.652;2022-11-15T07:26:57;8.60;99.90
3752;DHT22;50827;47.014;7.652;2022-11-15T07:29:24;8.70;99.90
3752;DHT22;50827;47.014;7.652;2022-11-15T07:31:51;8.70;99.90
3752;DHT22;50827;47.014;7.652;2022-11-15T07:34:17;8.70;99.90
3752;DHT22;50827;47.014;7.652;2022-11-15T07:36:44;8.70;99.90
3752;DHT22;50827;47.014;7.652;2022-11-15T07:39:11;8.70;99.90
3752;DHT22;50827;47.014;7.652;2022-11-15T07:41:38;8.70;99.90
3752;DHT22;50827;47.014;7.652;2022-11-15T07:44:05;8.70;99.90
3752;DHT22;50827;47.014;7.652;2022-11-15T07:46:32;8.80;99.90
3752;DHT22;50827;47.014;7.652;2022-11-15T07:48:58;8.70;99.90
3752;DHT22;50827;47.014;7.652;2022-11-15T07:51:25;8.70;99.90
3752;DHT22;50827;47.014;7.652;2022-11-15T07:53:51;8.80;99.90
3752;DHT22;50827;47.014;7.652;2022-11-15T07:56:18;8.70;99.90
3752;DHT22;50827;47.014;7.652;2022-11-15T07:58:45;8.70;99.90
3752;DHT22;50827;47.014;7.652;2022-11-15T08:01:12;8.70;99.90
3752;DHT22;50827;47.014;7.652;2022-11-15T08:03:39;8.70;99.90
3752;DHT22;50827;47.014;7.652;2022-11-15T08:06:06;8.70;99.90
3752;DHT22;50827;47.014;7.652;2022-11-15T08:08:33;8.80;99.90
3752;DHT22;50827;47.014;7.652;2022-11-15T08:11:00;8.80;99.90
3752;DHT22;50827;47.014;7.652;2022-11-15T08:13:26;8.90;99.90
3752;DHT22;50827;47.014;7.652;2022-11-15T08:16:00;8.90;99.90
3752;DHT22;50827;47.014;7.652;2022-11-15T08:18:28;8.90;99.90
3752;DHT22;50827;47.014;7.652;2022-11-15T08:20:58;8.90;99.90
3752;DHT22;50827;47.014;7.652;2022-11-15T08:23:25;8.90;99.90
3752;DHT22;50827;47.014;7.652;2022-11-15T08:25:52;9.00;99.90
3752;DHT22;50827;47.014;7.652;2022-11-15T08:28:19;9.00;99.90
3752;DHT22;50827;47.014;7.652;2022-11-15T08:30:45;9.00;99.90
3752;DHT22;50827;47.014;7.652;2022-11-15T08:33:13;9.00;99.90
3752;DHT22;50827;47.014;7.652;2022-11-15T08:35:41;9.10;99.90
3752;DHT22;50827;47.014;7.652;2022-11-15T08:38:08;9.00;99.90
3752;DHT22;50827;47.014;7.652;2022-11-15T08:40:35;9.10;99.90
3752;DHT22;50827;47.014;7.652;2022-11-15T08:43:02;9.10;99.90
3752;DHT22;50827;47.014;7.652;2022-11-15T08:45:30;9.10;99.90
3752;DHT22;50827;47.014;7.652;2022-11-15T08:47:57;9.10;99.90
3752;DHT22;50827;47.014;7.652;2022-11-15T08:50:23;9.20;99.90
3752;DHT22;50827;47.014;7.652;2022-11-15T08:52:50;9.10;99.90
3752;DHT22;50827;47.014;7.652;2022-11-15T08:55:17;9.10;99.90
3752;DHT22;50827;47.014;7.652;2022-11-15T08:57:44;9.10;99.90
3752;DHT22;50827;47.014;7.652;2022-11-15T09:00:11;9.10;99.90
3752;DHT22;50827;47.014;7.652;2022-11-15T09:02:39;9.10;99.90
3752;DHT22;50827;47.014;7.652;2022-11-15T09:05:07;9.10;99.90
3752;DHT22;50827;47.014;7.652;2022-11-15T09:07:33;9.20;99.90
3752;DHT22;50827;47.014;7.652;2022-11-15T09:10:00;9.30;99.90
3752;DHT22;50827;47.014;7.652;2022-11-15T09:12:27;9.30;99.90
3752;DHT22;50827;47.014;7.652;2022-11-15T09:14:54;9.30;99.90
3752;DHT22;50827;47.014;7.652;2022-11-15T09:17:21;9.20;99.90
3752;DHT22;50827;47.014;7.652;2022-11-15T09:20:08;9.20;99.90
3752;DHT22;50827;47.014;7.652;2022-11-15T09:22:35;9.20;99.90
3752;DHT22;50827;47.014;7.652;2022-11-15T09:25:03;9.20;99.90
3752;DHT22;50827;47.014;7.652;2022-11-15T09:27:35;9.10;99.90
3752;DHT22;50827;47.014;7.652;2022-11-15T09:30:03;9.20;99.90
3752;DHT22;50827;47.014;7.652;2022-11-15T09:32:30;9.10;99.90
3752;DHT22;50827;47.014;7.652;2022-11-15T09:35:04;9.10;99.90
3752;DHT22;50827;47.014;7.652;2022-11-15T09:37:32;9.10;99.90
3752;DHT22;50827;47.014;7.652;2022-11-15T09:39:58;9.20;99.90
3752;DHT22;50827;47.014;7.652;2022-11-15T09:51:14;9.50;99.90
3752;DHT22;50827;47.014;7.652;2022-11-15T09:57:16;9.70;99.90
3752;DHT22;50827;47.014;7.652;2022-11-15T10:03:19;9.80;99.90
3752;DHT22;50827;47.014;7.652;2022-11-15T10:05:50;9.70;99.90
3752;DHT22;50827;47.014;7.652;2022-11-15T10:11:08;9.90;99.90
3752;DHT22;50827;47.014;7.652;2022-11-15T10:13:59;10.00;99.90
3752;DHT22;50827;47.014;7.652;2022-11-15T10:22:24;10.00;99.90
3752;DHT22;50827;47.014;7.652;2022-11-15T10:24:58;10.00;99.90
3752;DHT22;50827;47.014;7.652;2022-11-15T10:27:26;10.10;99.90
3752;DHT22;50827;47.014;7.652;2022-11-15T10:29:53;10.10;99.90
3752;DHT22;50827;47.014;7.652;2022-11-15T10:32:20;10.10;99.90
3752;DHT22;50827;47.014;7.652;2022-11-15T10:34:49;10.10;99.90
3752;DHT22;50827;47.014;7.652;2022-11-15T10:37:30;10.20;99.90
3752;DHT22;50827;47.014;7.652;2022-11-15T10:40:16;10.30;99.90
3752;DHT22;50827;47.014;7.652;2022-11-15T10:42:43;10.30;99.90
3752;DHT22;50827;47.014;7.652;2022-11-15T10:45:29;10.40;99.90
3752;DHT22;50827;47.014;7.652;2022-11-15T10:48:22;10.40;99.90
3752;DHT22;50827;47.014;7.652;2022-11-15T10:50:50;10.50;99.90
3752;DHT22;50827;47.014;7.652;2022-11-15T10:53:27;10.50;99.90
3752;DHT22;50827;47.014;7.652;2022-11-15T10:56:03;10.50;99.90
3752;DHT22;50827;47.014;7.652;2022-11-15T10:58:41;10.50;99.90
3752;DHT22;50827;47.014;7.652;2022-11-15T11:01:19;10.50;99.90
3752;DHT22;50827;47.014;7.652;2022-11-15T11:04:05;10.60;99.90
3752;DHT22;50827;47.014;7.652;2022-11-15T11:06:53;10.60;99.90
3752;DHT22;50827;47.014;7.652;2022-11-15T11:09:35;10.70;99.90
3752;DHT22;50827;47.014;7.652;2022-11-15T11:12:03;10.70;99.90
3752;DHT22;50827;47.014;7.652;2022-11-15T11:14:33;10.70;99.90
3752;DHT22;50827;47.014;7.652;2022-11-15T11:22:55;10.80;99.90
3752;DHT22;50827;47.014;7.652;2022-11-15T11:25:50;10.90;99.90
3752;DHT22;50827;47.014;7.652;2022-11-15T11:31:34;11.00;99.90
3752;DHT22;50827;47.014;7.652;2022-11-15T11:36:42;11.10;99.90
3752;DHT22;50827;47.014;7.652;2022-11-15T11:50:32;11.10;99.90
3752;DHT22;50827;47.014;7.652;2022-11-15T11:53:21;11.20;99.90
3752;DHT22;50827;47.014;7.652;2022-11-15T11:55:57;11.20;99.90
3752;DHT22;50827;47.014;7.652;2022-11-15T11:58:34;11.20;99.90
3752;DHT22;50827;47.014;7.652;2022-11-15T12:03:51;11.20;99.90
3752;DHT22;50827;47.014;7.652;2022-11-15T12:06:33;11.30;99.90
3752;DHT22;50827;47.014;7.652;2022-11-15T12:09:12;11.20;99.90
3752;DHT22;50827;47.014;7.652;2022-11-15T12:12:13;11.20;99.90
3752;DHT22;50827;47.014;7.652;2022-11-15T12:14:46;11.20;99.90
3752;DHT22;50827;47.014;7.652;2022-11-15T12:17:17;11.30;99.90
3752;DHT22;50827;47.014;7.652;2022-11-15T12:19:46;11.30;99.90
3752;DHT22;50827;47.014;7.652;2022-11-15T12:22:19;11.30;99.90
3752;DHT22;50827;47.014;7.652;2022-11-15T12:24:57;11.30;99.90
3752;DHT22;50827;47.014;7.652;2022-11-15T12:31:05;11.40;99.90
3752;DHT22;50827;47.014;7.652;2022-11-15T12:36:10;11.50;99.90
3752;DHT22;50827;47.014;7.652;2022-11-15T12:38:56;11.50;99.90
3752;DHT22;50827;47.014;7.652;2022-11-15T12:41:29;11.60;99.90
3752;DHT22;50827;47.014;7.652;2022-11-15T12:43:57;11.60;99.90
3752;DHT22;50827;47.014;7.652;2022-11-15T12:59:56;11.70;99.90
3752;DHT22;50827;47.014;7.652;2022-11-15T13:04:55;11.70;99.90
3752;DHT22;50827;47.014;7.652;2022-11-15T13:17:47;11.80;99.90
3752;DHT22;50827;47.014;7.652;2022-11-15T13:22:42;11.80;99.90
3752;DHT22;50827;47.014;7.652;2022-11-15T13:31:23;11.90;99.90
3752;DHT22;50827;47.014;7.652;2022-11-15T13:33:48;11.90;99.90
3752;DHT22;50827;47.014;7.652;2022-11-15T13:36:19;11.90;99.90
3752;DHT22;50827;47.014;7.652;2022-11-15T13:38:59;11.90;99.90
3752;DHT22;50827;47.014;7.652;2022-11-15T13:41:28;11.90;99.90
3752;DHT22;50827;47.014;7.652;2022-11-15T13:43:56;12.00;99.90
3752;DHT22;50827;47.014;7.652;2022-11-15T13:46:31;12.00;99.90
3752;DHT22;50827;47.014;7.652;2022-11-15T13:49:09;12.00;99.90
3752;DHT22;50827;47.014;7.652;2022-11-15T13:51:44;12.00;99.90
3752;DHT22;50827;47.014;7.652;2022-11-15T13:56:47;12.00;99.90
3752;DHT22;50827;47.014;7.652;2022-11-15T13:59:25;12.10;99.90
3752;DHT22;50827;47.014;7.652;2022-11-15T14:01:54;12.00;99.90
3752;DHT22;50827;47.014;7.652;2022-11-15T14:04:23;12.00;99.90
3752;DHT22;50827;47.014;7.652;2022-11-15T14:06:56;12.00;99.90
3752;DHT22;50827;47.014;7.652;2022-11-15T14:09:34;11.90;99.90
3752;DHT22;50827;47.014;7.652;2022-11-15T14:12:20;12.00;99.90
3752;DHT22;50827;47.014;7.652;2022-11-15T14:14:48;12.00;99.90
3752;DHT22;50827;47.014;7.652;2022-11-15T14:19:57;12.00;99.90
3752;DHT22;50827;47.014;7.652;2022-11-15T14:22:29;12.00;99.90
3752;DHT22;50827;47.014;7.652;2022-11-15T14:25:15;12.00;99.90
3752;DHT22;50827;47.014;7.652;2022-11-15T14:28:07;12.00;99.90
3752;DHT22;50827;47.014;7.652;2022-11-15T14:30:31;12.00;99.90
3752;DHT22;50827;47.014;7.652;2022-11-15T14:32:57;12.00;99.90
3752;DHT22;50827;47.014;7.652;2022-11-15T14:35:24;11.90;99.90
3752;DHT22;50827;47.014;7.652;2022-11-15T14:37:51;12.00;99.90
3752;DHT22;50827;47.014;7.652;2022-11-15T14:40:19;11.90;99.90
3752;DHT22;50827;47.014;7.652;2022-11-15T14:42:48;12.00;99.90
3752;DHT22;50827;47.014;7.652;2022-11-15T14:45:17;12.00;99.90
3752;DHT22;50827;47.014;7.652;2022-11-15T14:47:44;11.90;99.90
3752;DHT22;50827;47.014;7.652;2022-11-15T14:50:13;12.00;99.90
3752;DHT22;50827;47.014;7.652;2022-11-15T14:52:40;12.00;99.90
3752;DHT22;50827;47.014;7.652;2022-11-15T14:55:26;12.00;99.90
3752;DHT22;50827;47.014;7.652;2022-11-15T14:57:55;11.90;99.90
3752;DHT22;50827;47.014;7.652;2022-11-15T15:00:22;12.00;99.90
3752;DHT22;50827;47.014;7.652;2022-11-15T15:02:52;12.00;99.90
3752;DHT22;50827;47.014;7.652;2022-11-15T15:05:32;11.90;99.90
3752;DHT22;50827;47.014;7.652;2022-11-15T15:07:59;11.80;99.90
3752;DHT22;50827;47.014;7.652;2022-11-15T15:10:38;11.90;99.90
3752;DHT22;50827;47.014;7.652;2022-11-15T15:13:24;11.80;99.90
3752;DHT22;50827;47.014;7.652;2022-11-15T15:15:51;11.80;99.90
3752;DHT22;50827;47.014;7.652;2022-11-15T15:18:19;11.80;99.90
3752;DHT22;50827;47.014;7.652;2022-11-15T15:20:53;11.80;99.90
3752;DHT22;50827;47.014;7.652;2022-11-15T15:23:21;11.80;99.90
3752;DHT22;50827;47.014;7.652;2022-11-15T15:25:49;11.80;99.90
3752;DHT22;50827;47.014;7.652;2022-11-15T15:28:17;11.70;99.90
3752;DHT22;50827;47.014;7.652;2022-11-15T15:30:44;11.70;99.90
3752;DHT22;50827;47.014;7.652;2022-11-15T15:33:11;11.70;99.90
3752;DHT22;50827;47.014;7.652;2022-11-15T15:35:37;11.70;99.90
3752;DHT22;50827;47.014;7.652;2022-11-15T15:38:04;11.70;99.90
3752;DHT22;50827;47.014;7.652;2022-11-15T15:40:32;11.70;99.90
3752;DHT22;50827;47.014;7.652;2022-11-15T15:42:59;11.70;99.90
3752;DHT22;50827;47.014;7.652;2022-11-15T15:45:26;11.70;99.90
3752;DHT22;50827;47.014;7.652;2022-11-15T15:47:54;11.60;99.90
3752;DHT22;50827;47.014;7.652;2022-11-15T15:50:29;11.50;99.90
3752;DHT22;50827;47.014;7.652;2022-11-15T15:52:58;11.60;99.90
3752;DHT22;50827;47.014;7.652;2022-11-15T15:55:25;11.60;99.90
3752;DHT22;50827;47.014;7.652;2022-11-15T15:57:52;11.60;99.90
3752;DHT22;50827;47.014;7.652;2022-11-15T16:00:21;11.60;99.90
3752;DHT22;50827;47.014;7.652;2022-11-15T16:02:50;11.60;99.90
3752;DHT22;50827;47.014;7.652;2022-11-15T16:05:17;11.60;99.90
3752;DHT22;50827;47.014;7.652;2022-11-15T16:07:44;11.60;99.90
3752;DHT22;50827;47.014;7.652;2022-11-15T16:10:24;11.60;99.90
3752;DHT22;50827;47.014;7.652;2022-11-15T16:12:52;11.60;99.90
3752;DHT22;50827;47.014;7.652;2022-11-15T16:15:20;11.50;99.90
3752;DHT22;50827;47.014;7.652;2022-11-15T16:20:42;11.50;99.90
3752;DHT22;50827;47.014;7.652;2022-11-15T16:23:12;11.40;99.90
3752;DHT22;50827;47.014;7.652;2022-11-15T16:25:51;11.50;99.90
3752;DHT22;50827;47.014;7.652;2022-11-15T16:28:27;11.50;99.90
3752;DHT22;50827;47.014;7.652;2022-11-15T16:31:07;11.40;99.90
3752;DHT22;50827;47.014;7.652;2022-11-15T16:33:34;11.40;99.90
3752;DHT22;50827;47.014;7.652;2022-11-15T16:36:03;11.40;99.90
3752;DHT22;50827;47.014;7.652;2022-11-15T16:38:30;11.40;99.90
3752;DHT22;50827;47.014;7.652;2022-11-15T16:40:57;11.40;99.90
3752;DHT22;50827;47.014;7.652;2022-11-15T16:43:24;11.40;99.90
3752;DHT22;50827;47.014;7.652;2022-11-15T16:45:51;11.40;99.90
3752;DHT22;50827;47.014;7.652;2022-11-15T16:48:26;11.30;99.90
3752;DHT22;50827;47.014;7.652;2022-11-15T16:50:57;11.30;99.90
3752;DHT22;50827;47.014;7.652;2022-11-15T16:53:25;11.30;99.90
3752;DHT22;50827;47.014;7.652;2022-11-15T16:55:54;11.30;99.90
3752;DHT22;50827;47.014;7.652;2022-11-15T16:58:21;11.20;99.90
3752;DHT22;50827;47.014;7.652;2022-11-15T17:00:52;11.30;99.90
3752;DHT22;50827;47.014;7.652;2022-11-15T17:03:21;11.30;99.90
3752;DHT22;50827;47.014;7.652;2022-11-15T17:05:48;11.30;99.90
3752;DHT22;50827;47.014;7.652;2022-11-15T17:08:15;11.30;99.90
3752;DHT22;50827;47.014;7.652;2022-11-15T17:10:41;11.30;99.90
3752;DHT22;50827;47.014;7.652;2022-11-15T17:13:11;11.30;99.90
3752;DHT22;50827;47.014;7.652;2022-11-15T17:15:38;11.20;99.90
3752;DHT22;50827;47.014;7.652;2022-11-15T17:18:05;11.20;99.90
3752;DHT22;50827;47.014;7.652;2022-11-15T17:20:32;11.20;99.90
3752;DHT22;50827;47.014;7.652;2022-11-15T17:22:59;11.20;99.90
3752;DHT22;50827;47.014;7.652;2022-11-15T17:25:25;11.20;99.90
3752;DHT22;50827;47.014;7.652;2022-11-15T17:27:52;11.30;99.90
3752;DHT22;50827;47.014;7.652;2022-11-15T17:30:18;11.30;99.90
3752;DHT22;50827;47.014;7.652;2022-11-15T17:32:45;11.30;99.90
3752;DHT22;50827;47.014;7.652;2022-11-15T17:35:13;11.30;99.90
3752;DHT22;50827;47.014;7.652;2022-11-15T17:37:41;11.30;99.90
3752;DHT22;50827;47.014;7.652;2022-11-15T17:40:09;11.20;99.90
3752;DHT22;50827;47.014;7.652;2022-11-15T17:42:35;11.20;99.90
3752;DHT22;50827;47.014;7.652;2022-11-15T17:45:02;11.10;99.90
3752;DHT22;50827;47.014;7.652;2022-11-15T17:47:35;11.10;99.90
3752;DHT22;50827;47.014;7.652;2022-11-15T17:50:02;11.10;99.90
3752;DHT22;50827;47.014;7.652;2022-11-15T17:52:29;11.10;99.90
3752;DHT22;50827;47.014;7.652;2022-11-15T17:54:56;11.10;99.90
3752;DHT22;50827;47.014;7.652;2022-11-15T17:57:22;11.10;99.90
3752;DHT22;50827;47.014;7.652;2022-11-15T17:59:49;11.10;99.90
3752;DHT22;50827;47.014;7.652;2022-11-15T18:02:16;11.20;99.90
3752;DHT22;50827;47.014;7.652;2022-11-15T18:04:42;11.20;99.90
3752;DHT22;50827;47.014;7.652;2022-11-15T18:07:09;11.20;99.90
3752;DHT22;50827;47.014;7.652;2022-11-15T18:09:37;11.20;99.90
3752;DHT22;50827;47.014;7.652;2022-11-15T18:12:07;11.20;99.90
3752;DHT22;50827;47.014;7.652;2022-11-15T18:14:34;11.20;99.90
3752;DHT22;50827;47.014;7.652;2022-11-15T18:17:01;11.10;99.90
3752;DHT22;50827;47.014;7.652;2022-11-15T18:19:27;11.00;99.90
3752;DHT22;50827;47.014;7.652;2022-11-15T18:21:54;11.10;99.90